Time;durP1;ratioP1;P1;durP2;ratioP2;P2;SDS_P1;SDS_P2;PMS_P1;PMS_P2;Temp;Humidity;BMP_temperature;BMP_pressure;BME280_temperature;BME280_humidity;BME280_pressure;Samples;Min_cycle;Max_cycle;Signal;HPM_P1;HPM_P2
2022/01/18 00:00:52;;;;;;;80.10;12.75;;;;;;;;;;5146076;27;20046;-62
2022/01/18 00:03:18;;;;;;;78.93;10.27;;;;;;;;;;5145727;27;20054;-62
2022/01/18 00:05:47;;;;;;;69.82;9.20;;;;;;;;;;5142744;27;20430;-62
2022/01/18 00:08:15;;;;;;;79.35;9.77;;;;;;;;;;5144508;27;20069;-62
2022/01/18 00:10:41;;;;;;;73.32;9.50;;;;;;;;;;5143972;27;20508;-62
2022/01/18 00:13:12;;;;;;;64.20;8.93;;;;;;;;;;5145588;27;20094;-62
2022/01/18 00:15:55;;;;;;;62.13;9.00;;;;;;;;;;5145447;27;20071;-62
2022/01/18 00:18:21;;;;;;;58.97;9.13;;;;;;;;;;5145701;27;20039;-62
2022/01/18 00:21:18;;;;;;;72.38;9.30;;;;;;;;;;5143132;28;20082;-62
2022/01/18 00:23:45;;;;;;;62.50;8.43;;;;;;;;;;5145141;27;20051;-62
2022/01/18 00:26:11;;;;;;;75.07;8.05;;;;;;;;;;5145249;27;20051;-62
2022/01/18 00:28:38;;;;;;;54.92;7.47;;;;;;;;;;5144935;28;20064;-62
2022/01/18 00:36:22;;;;;;;73.40;8.57;;;;;;;;;;5145157;28;20122;-62
2022/01/18 00:38:48;;;;;;;67.68;8.52;;;;;;;;;;5145564;27;20078;-61
2022/01/18 00:41:16;;;;;;;72.90;10.10;;;;;;;;;;5144488;27;20050;-61
2022/01/18 00:43:44;;;;;;;62.33;9.50;;;;;;;;;;5145241;28;20103;-62
2022/01/18 00:46:12;;;;;;;77.55;9.43;;;;;;;;;;5145075;28;20102;-64
2022/01/18 00:48:38;;;;;;;83.30;7.70;;;;;;;;;;5147199;27;20043;-61
2022/01/18 00:51:09;;;;;;;80.30;9.50;;;;;;;;;;5148553;27;20043;-61
2022/01/18 00:53:37;;;;;;;80.95;9.65;;;;;;;;;;5149272;27;20078;-61
2022/01/18 00:58:36;;;;;;;85.38;10.50;;;;;;;;;;5149178;27;20695;-61
2022/01/18 01:01:02;;;;;;;65.63;9.27;;;;;;;;;;5148308;27;20035;-61
2022/01/18 01:03:28;;;;;;;81.53;11.00;;;;;;;;;;5147757;27;20051;-61
2022/01/18 01:05:54;;;;;;;82.93;8.23;;;;;;;;;;5148823;27;20050;-61
2022/01/18 01:08:20;;;;;;;84.50;10.90;;;;;;;;;;5149120;27;20043;-62
2022/01/18 01:10:47;;;;;;;71.70;8.52;;;;;;;;;;5148112;27;20535;-62
2022/01/18 01:13:13;;;;;;;98.38;8.27;;;;;;;;;;5148969;27;20066;-62
2022/01/18 01:32:37;;;;;;;78.88;8.50;;;;;;;;;;5147787;27;20088;-62
2022/01/18 01:45:04;;;;;;;88.53;9.77;;;;;;;;;;5148034;27;20075;-63
2022/01/18 01:47:37;;;;;;;89.18;8.77;;;;;;;;;;5148059;27;20050;-63
2022/01/18 01:50:05;;;;;;;70.50;7.25;;;;;;;;;;5140770;27;20070;-62
2022/01/18 01:52:31;;;;;;;72.28;7.75;;;;;;;;;;5136226;27;20073;-61
2022/01/18 01:54:58;;;;;;;55.35;7.35;;;;;;;;;;5147758;27;20228;-61
2022/01/18 01:57:24;;;;;;;79.82;8.30;;;;;;;;;;5147868;27;20062;-62
2022/01/18 01:59:50;;;;;;;63.00;8.05;;;;;;;;;;5145396;27;20122;-61
2022/01/18 02:02:17;;;;;;;53.25;6.35;;;;;;;;;;5147430;27;20042;-61
2022/01/18 02:04:43;;;;;;;64.15;7.20;;;;;;;;;;5148122;27;20118;-61
2022/01/18 02:07:09;;;;;;;66.85;7.40;;;;;;;;;;5146016;27;20049;-61
2022/01/18 02:09:35;;;;;;;62.20;7.65;;;;;;;;;;5147807;27;20046;-62
2022/01/18 02:12:01;;;;;;;62.03;6.55;;;;;;;;;;5147430;27;20053;-61
2022/01/18 02:14:30;;;;;;;52.10;7.05;;;;;;;;;;5147650;27;20401;-61
2022/01/18 02:22:26;;;;;;;60.83;7.43;;;;;;;;;;5146837;27;20097;-61
2022/01/18 02:24:52;;;;;;;62.53;7.57;;;;;;;;;;5147229;27;20054;-61
2022/01/18 02:27:18;;;;;;;62.10;7.57;;;;;;;;;;5146845;27;20399;-61
2022/01/18 02:29:45;;;;;;;53.60;7.90;;;;;;;;;;5146102;27;20051;-61
2022/01/18 02:32:11;;;;;;;66.60;7.25;;;;;;;;;;5145918;27;20099;-61
2022/01/18 02:34:37;;;;;;;47.38;6.15;;;;;;;;;;5147345;27;20045;-61
2022/01/18 02:37:04;;;;;;;60.35;7.57;;;;;;;;;;5146515;27;20046;-61
2022/01/18 02:39:30;;;;;;;59.37;9.50;;;;;;;;;;5147202;27;20054;-61
2022/01/18 02:41:58;;;;;;;43.13;8.35;;;;;;;;;;5146605;27;20049;-61
2022/01/18 02:44:25;;;;;;;54.10;7.22;;;;;;;;;;5146779;27;20175;-61
2022/01/18 02:46:51;;;;;;;47.27;7.90;;;;;;;;;;5146801;27;20059;-61
2022/01/18 02:49:17;;;;;;;45.50;6.40;;;;;;;;;;5147229;27;20065;-61
2022/01/18 02:51:44;;;;;;;35.10;5.68;;;;;;;;;;5145934;27;20043;-61
2022/01/18 02:54:12;;;;;;;58.75;7.25;;;;;;;;;;5147099;27;20047;-61
2022/01/18 02:56:41;;;;;;;;;;;;;;;;;;5146962;27;20043;-61
2022/01/18 02:59:21;;;;;;;;;;;;;;;;;;5147301;27;20294;-61
2022/01/18 03:04:39;;;;;;;47.05;5.00;;;;;;;;;;5146793;27;20084;-61
2022/01/18 03:07:05;;;;;;;37.65;5.43;;;;;;;;;;5146329;27;20039;-61
2022/01/18 03:09:31;;;;;;;42.15;5.80;;;;;;;;;;5146619;27;20039;-61
2022/01/18 03:11:57;;;;;;;39.85;5.00;;;;;;;;;;5145283;27;20043;-61
2022/01/18 03:14:24;;;;;;;30.13;4.65;;;;;;;;;;5146665;27;20098;-61
2022/01/18 03:16:50;;;;;;;29.88;4.38;;;;;;;;;;5144958;27;20051;-61
2022/01/18 03:19:16;;;;;;;42.28;5.15;;;;;;;;;;5146779;27;20055;-61
2022/01/18 03:21:42;;;;;;;32.13;5.32;;;;;;;;;;5145452;27;20493;-61
2022/01/18 03:24:19;;;;;;;40.97;4.13;;;;;;;;;;5146094;27;20043;-61
2022/01/18 03:29:31;;;;;;;33.22;4.28;;;;;;;;;;5146036;27;20187;-61
2022/01/18 03:31:57;;;;;;;33.13;5.25;;;;;;;;;;5145406;27;20057;-61
2022/01/18 03:34:23;;;;;;;38.13;4.20;;;;;;;;;;5145999;27;20107;-61
2022/01/18 03:36:49;;;;;;;42.63;5.93;;;;;;;;;;5145752;27;20104;-61
2022/01/18 03:39:15;;;;;;;33.97;4.25;;;;;;;;;;5146176;27;20054;-61
2022/01/18 03:41:42;;;;;;;36.20;4.30;;;;;;;;;;5145103;27;20050;-61
2022/01/18 03:44:08;;;;;;;21.88;3.45;;;;;;;;;;5145974;27;20047;-61
2022/01/18 03:46:36;;;;;;;27.02;4.28;;;;;;;;;;5144344;27;20101;-61
2022/01/18 03:49:06;;;;;;;31.90;3.72;;;;;;;;;;5146003;27;20072;-61
2022/01/18 03:51:32;;;;;;;22.73;4.28;;;;;;;;;;5145325;27;20043;-61
2022/01/18 03:53:58;;;;;;;29.40;4.35;;;;;;;;;;5145037;27;20069;-61
2022/01/18 03:56:24;;;;;;;33.33;5.45;;;;;;;;;;5145508;27;20067;-61
2022/01/18 03:58:51;;;;;;;25.75;3.55;;;;;;;;;;5145818;27;20043;-61
2022/01/18 04:01:17;;;;;;;29.85;4.85;;;;;;;;;;5145346;27;20126;-61
2022/01/18 04:03:43;;;;;;;23.20;3.42;;;;;;;;;;5145260;27;20096;-61
2022/01/18 04:06:09;;;;;;;24.38;4.15;;;;;;;;;;5144057;27;20043;-62
2022/01/18 04:08:35;;;;;;;19.42;2.65;;;;;;;;;;5145638;27;20078;-60
2022/01/18 04:11:01;;;;;;;21.40;3.03;;;;;;;;;;5144077;27;20114;-60
2022/01/18 04:13:27;;;;;;;27.83;3.88;;;;;;;;;;5144211;27;20057;-63
2022/01/18 04:15:53;;;;;;;25.20;3.92;;;;;;;;;;5143999;27;20047;-62
2022/01/18 04:18:50;;;;;;;22.27;3.40;;;;;;;;;;5145739;28;20047;-61
2022/01/18 04:29:12;;;;;;;26.05;4.10;;;;;;;;;;5149678;27;20150;-61
2022/01/18 04:31:38;;;;;;;26.45;3.20;;;;;;;;;;5148226;27;20051;-61
2022/01/18 04:34:05;;;;;;;30.27;3.65;;;;;;;;;;5149115;27;20110;-61
2022/01/18 04:36:31;;;;;;;21.95;3.60;;;;;;;;;;5148995;27;20043;-61
2022/01/18 04:38:57;;;;;;;18.75;3.00;;;;;;;;;;5149960;27;20039;-61
2022/01/18 04:41:29;;;;;;;31.92;3.10;;;;;;;;;;5149131;27;20051;-61
2022/01/18 04:49:11;;;;;;;14.82;2.42;;;;;;;;;;5149299;27;20039;-62
2022/01/18 04:51:37;;;;;;;9.82;2.70;;;;;;;;;;5148522;27;20051;-63
2022/01/18 04:54:06;;;;;;;16.73;2.67;;;;;;;;;;5147616;27;20088;-63
2022/01/18 04:59:03;;;;;;;14.55;2.20;;;;;;;;;;5149265;27;20483;-62
2022/01/18 05:01:30;;;;;;;18.48;2.80;;;;;;;;;;5148980;27;20047;-61
2022/01/18 05:03:57;;;;;;;12.88;3.05;;;;;;;;;;5148493;27;20470;-61
2022/01/18 05:06:23;;;;;;;18.40;2.25;;;;;;;;;;5148495;27;20115;-62
2022/01/18 05:08:49;;;;;;;17.70;2.00;;;;;;;;;;5148879;27;20046;-62
2022/01/18 05:11:18;;;;;;;15.68;3.60;;;;;;;;;;5148832;27;20049;-62
2022/01/18 05:14:17;;;;;;;17.15;3.08;;;;;;;;;;5148594;27;20650;-61
2022/01/18 05:16:51;;;;;;;11.25;2.42;;;;;;;;;;5148754;27;20039;-62
2022/01/18 05:24:31;;;;;;;14.38;2.20;;;;;;;;;;5142097;27;20046;-61
2022/01/18 05:26:58;;;;;;;16.00;3.30;;;;;;;;;;5139829;27;20064;-62
2022/01/18 05:29:24;;;;;;;14.10;2.40;;;;;;;;;;5143831;27;20122;-62
2022/01/18 05:31:51;;;;;;;11.02;3.05;;;;;;;;;;5141246;27;20131;-62
2022/01/18 05:34:17;;;;;;;13.95;2.55;;;;;;;;;;5147703;27;20063;-62
2022/01/18 05:36:43;;;;;;;18.25;3.55;;;;;;;;;;5147838;27;20047;-62
2022/01/18 05:39:10;;;;;;;17.58;3.22;;;;;;;;;;5147919;27;20571;-62
2022/01/18 05:41:37;;;;;;;13.25;2.20;;;;;;;;;;5155184;27;20030;-62
2022/01/18 05:44:03;;;;;;;22.23;3.80;;;;;;;;;;5150289;27;20053;-62
2022/01/18 05:46:29;;;;;;;13.57;2.47;;;;;;;;;;5151570;27;20121;-61
2022/01/18 05:48:55;;;;;;;16.80;2.55;;;;;;;;;;5140758;27;20052;-62
2022/01/18 05:51:22;;;;;;;13.07;3.17;;;;;;;;;;5142716;27;20042;-62
2022/01/18 05:53:48;;;;;;;15.43;2.55;;;;;;;;;;5148086;27;20320;-62
2022/01/18 05:56:14;;;;;;;26.33;3.88;;;;;;;;;;5151162;27;20125;-61
2022/01/18 05:58:45;;;;;;;14.25;2.97;;;;;;;;;;5168991;27;20118;-62
2022/01/18 06:01:13;;;;;;;19.23;2.80;;;;;;;;;;5148857;27;20046;-62
2022/01/18 06:03:54;;;;;;;19.38;2.30;;;;;;;;;;5148622;27;20050;-61
2022/01/18 06:09:05;;;;;;;14.18;2.03;;;;;;;;;;5147924;27;20043;-61
2022/01/18 06:11:31;;;;;;;15.57;2.92;;;;;;;;;;5147315;27;20039;-61
2022/01/18 06:13:57;;;;;;;21.27;3.92;;;;;;;;;;5147380;27;20509;-62
2022/01/18 06:16:24;;;;;;;11.20;2.25;;;;;;;;;;5147845;27;20047;-61
2022/01/18 06:18:50;;;;;;;15.98;2.53;;;;;;;;;;5147456;27;20125;-62
2022/01/18 06:21:16;;;;;;;18.52;2.83;;;;;;;;;;5146789;27;20043;-62
2022/01/18 06:23:42;;;;;;;19.45;2.60;;;;;;;;;;5147125;27;20111;-62
2022/01/18 06:26:14;;;;;;;13.93;3.50;;;;;;;;;;5146984;27;20074;-62
2022/01/18 06:28:40;;;;;;;11.68;2.80;;;;;;;;;;5147492;27;20061;-62
2022/01/18 06:31:06;;;;;;;18.55;2.70;;;;;;;;;;5147094;27;20054;-62
2022/01/18 06:33:32;;;;;;;17.65;2.55;;;;;;;;;;5147023;27;20410;-61
2022/01/18 06:35:58;;;;;;;17.70;3.20;;;;;;;;;;5146429;27;20077;-62
2022/01/18 06:38:25;;;;;;;23.90;3.13;;;;;;;;;;5146946;27;20043;-62
2022/01/18 06:40:51;;;;;;;15.43;2.55;;;;;;;;;;5146167;27;20043;-61
2022/01/18 06:43:17;;;;;;;19.88;3.40;;;;;;;;;;5147128;27;20098;-62
2022/01/18 06:45:43;;;;;;;19.27;3.45;;;;;;;;;;5145637;27;20065;-62
2022/01/18 06:48:09;;;;;;;20.42;3.97;;;;;;;;;;5153566;27;20114;-61
2022/01/18 06:50:36;;;;;;;16.60;3.25;;;;;;;;;;5150980;27;20039;-62
2022/01/18 06:53:02;;;;;;;24.45;3.88;;;;;;;;;;5146750;27;20046;-62
2022/01/18 06:55:29;;;;;;;21.52;3.38;;;;;;;;;;5146445;27;20043;-62
2022/01/18 06:57:56;;;;;;;20.45;3.35;;;;;;;;;;5146807;27;20039;-61
2022/01/18 07:00:22;;;;;;;17.90;4.70;;;;;;;;;;5145541;27;20479;-62
2022/01/18 07:02:48;;;;;;;16.10;3.65;;;;;;;;;;5146604;27;20046;-62
2022/01/18 07:05:15;;;;;;;23.52;4.15;;;;;;;;;;5145876;27;20103;-62
2022/01/18 07:07:42;;;;;;;22.40;4.75;;;;;;;;;;5147168;27;20494;-61
2022/01/18 07:10:09;;;;;;;19.77;3.80;;;;;;;;;;5139284;27;20031;-62
2022/01/18 07:12:35;;;;;;;14.00;4.13;;;;;;;;;;5146587;27;20065;-61
2022/01/18 07:15:02;;;;;;;24.30;4.53;;;;;;;;;;5145322;27;20035;-62
2022/01/18 07:17:28;;;;;;;24.30;3.70;;;;;;;;;;5145866;27;20039;-61
2022/01/18 07:19:54;;;;;;;19.95;4.63;;;;;;;;;;5144891;27;20377;-62
2022/01/18 07:22:20;;;;;;;14.52;3.72;;;;;;;;;;5144799;27;20047;-61
2022/01/18 07:24:47;;;;;;;28.67;3.97;;;;;;;;;;5146328;27;20122;-62
2022/01/18 07:27:15;;;;;;;22.67;5.00;;;;;;;;;;5146353;27;20047;-62
2022/01/18 07:29:42;;;;;;;20.08;4.25;;;;;;;;;;5144753;27;20175;-62
2022/01/18 07:32:09;;;;;;;16.38;3.92;;;;;;;;;;5144395;27;20622;-61
2022/01/18 07:34:39;;;;;;;21.77;4.07;;;;;;;;;;5145654;27;20035;-62
2022/01/18 07:37:06;;;;;;;16.70;4.03;;;;;;;;;;5144229;27;20058;-61
2022/01/18 07:39:33;;;;;;;22.88;4.13;;;;;;;;;;5146052;27;20050;-62
2022/01/18 07:41:59;;;;;;;19.55;3.75;;;;;;;;;;5143402;27;20049;-61
2022/01/18 07:44:25;;;;;;;21.98;5.72;;;;;;;;;;5145410;27;20118;-62
2022/01/18 07:46:51;;;;;;;21.65;4.35;;;;;;;;;;5145183;27;20046;-62
2022/01/18 07:49:17;;;;;;;27.77;4.88;;;;;;;;;;5145674;27;20134;-62
2022/01/18 07:51:43;;;;;;;24.45;4.60;;;;;;;;;;5145260;27;20084;-62
2022/01/18 07:54:10;;;;;;;22.13;4.10;;;;;;;;;;5142902;27;20082;-62
2022/01/18 07:56:41;;;;;;;26.47;4.97;;;;;;;;;;5143728;27;20062;-62
2022/01/18 07:59:07;;;;;;;27.38;4.43;;;;;;;;;;5145215;27;20285;-61
2022/01/18 08:01:33;;;;;;;31.58;5.00;;;;;;;;;;5145170;27;20090;-61
2022/01/18 08:03:59;;;;;;;28.70;6.10;;;;;;;;;;5145862;27;20046;-62
2022/01/18 08:06:25;;;;;;;26.63;6.03;;;;;;;;;;5144983;27;20483;-62
2022/01/18 08:08:52;;;;;;;26.05;5.93;;;;;;;;;;5145410;27;20047;-62
2022/01/18 08:11:18;;;;;;;22.77;5.13;;;;;;;;;;5145605;27;20039;-62
2022/01/18 08:13:48;;;;;;;19.77;5.18;;;;;;;;;;5145531;27;20233;-62
2022/01/18 08:18:59;;;;;;;21.95;6.82;;;;;;;;;;5145117;28;20126;-62
2022/01/18 08:21:25;;;;;;;20.00;5.28;;;;;;;;;;5145016;27;20398;-62
2022/01/18 08:23:52;;;;;;;25.90;6.65;;;;;;;;;;5145675;27;20051;-62
2022/01/18 08:26:18;;;;;;;20.38;6.60;;;;;;;;;;5145076;27;20075;-62
2022/01/18 08:28:45;;;;;;;21.20;6.03;;;;;;;;;;5145514;27;20055;-61
2022/01/18 08:31:11;;;;;;;20.75;5.38;;;;;;;;;;5145144;27;20085;-61
2022/01/18 08:33:37;;;;;;;22.40;5.95;;;;;;;;;;5145293;27;20107;-61
2022/01/18 08:36:06;;;;;;;27.58;5.95;;;;;;;;;;5143707;28;20047;-61
2022/01/18 08:38:32;;;;;;;19.52;5.82;;;;;;;;;;5144949;27;20561;-62
2022/01/18 08:40:59;;;;;;;22.42;5.50;;;;;;;;;;5145018;27;20058;-62
2022/01/18 08:43:26;;;;;;;25.63;5.82;;;;;;;;;;5125040;28;20073;-62
2022/01/18 08:45:52;;;;;;;18.90;5.82;;;;;;;;;;5143132;28;20035;-62
2022/01/18 08:48:18;;;;;;;20.75;5.30;;;;;;;;;;5145052;27;20110;-62
2022/01/18 08:50:45;;;;;;;19.10;5.68;;;;;;;;;;5144305;27;20044;-61
2022/01/18 08:53:11;;;;;;;25.35;5.03;;;;;;;;;;5144772;27;20050;-62
2022/01/18 08:55:37;;;;;;;17.75;5.53;;;;;;;;;;5144728;27;20068;-62
2022/01/18 08:58:04;;;;;;;24.80;6.32;;;;;;;;;;5144900;27;20067;-61
2022/01/18 09:00:30;;;;;;;22.40;4.90;;;;;;;;;;5145166;27;20039;-61
2022/01/18 09:02:56;;;;;;;23.45;5.50;;;;;;;;;;5136484;27;20047;-61
2022/01/18 09:05:23;;;;;;;16.30;4.85;;;;;;;;;;5140205;28;20134;-62
2022/01/18 09:07:51;;;;;;;17.73;4.22;;;;;;;;;;5139645;27;20452;-62
2022/01/18 09:10:17;;;;;;;20.30;4.78;;;;;;;;;;5147681;27;20031;-61
2022/01/18 09:12:43;;;;;;;8.85;4.05;;;;;;;;;;5148260;27;20042;-62
2022/01/18 09:15:10;;;;;;;17.80;4.25;;;;;;;;;;5145677;27;20066;-62
2022/01/18 09:17:38;;;;;;;14.48;3.65;;;;;;;;;;5128122;28;20058;-62
2022/01/18 09:20:06;;;;;;;;;;;;;;;;;;5134238;27;20035;-62
2022/01/18 09:22:38;;;;;;;16.75;3.85;;;;;;;;;;5148185;27;19975;-62
2022/01/18 09:25:05;;;;;;;14.60;3.25;;;;;;;;;;5149095;27;20055;-62
2022/01/18 09:27:31;;;;;;;19.60;3.95;;;;;;;;;;5164515;27;20133;-62
2022/01/18 09:29:57;;;;;;;19.88;3.45;;;;;;;;;;5148284;27;20041;-62
2022/01/18 09:32:23;;;;;;;15.25;3.42;;;;;;;;;;5148230;27;20058;-62
2022/01/18 09:34:50;;;;;;;17.48;3.58;;;;;;;;;;5148488;27;20046;-62
2022/01/18 09:37:16;;;;;;;16.35;4.13;;;;;;;;;;5148005;27;20422;-62
2022/01/18 09:39:42;;;;;;;10.88;3.60;;;;;;;;;;5148254;27;20134;-62
2022/01/18 09:42:10;;;;;;;12.20;3.60;;;;;;;;;;5147888;27;20107;-62
2022/01/18 09:44:36;;;;;;;24.75;5.18;;;;;;;;;;5148344;27;20110;-62
2022/01/18 09:47:03;;;;;;;11.88;3.30;;;;;;;;;;5141881;27;20087;-62
2022/01/18 09:49:29;;;;;;;18.08;4.20;;;;;;;;;;5146938;27;20511;-62
2022/01/18 09:51:55;;;;;;;19.98;6.28;;;;;;;;;;5145418;27;20047;-62
2022/01/18 09:54:21;;;;;;;21.40;4.88;;;;;;;;;;5146880;27;20573;-62
2022/01/18 09:56:47;;;;;;;18.33;4.70;;;;;;;;;;5146744;27;20064;-62
2022/01/18 09:59:14;;;;;;;19.30;4.93;;;;;;;;;;5147192;27;20043;-62
2022/01/18 10:01:40;;;;;;;18.33;4.18;;;;;;;;;;5146128;27;20035;-62
2022/01/18 10:04:20;;;;;;;14.80;4.80;;;;;;;;;;5147189;27;20117;-62
2022/01/18 10:06:51;;;;;;;21.88;4.50;;;;;;;;;;5145142;27;20039;-62
2022/01/18 10:09:18;;;;;;;17.58;4.18;;;;;;;;;;5147681;27;20047;-62
2022/01/18 10:12:02;;;;;;;14.73;4.15;;;;;;;;;;5145653;27;20691;-62
2022/01/18 10:14:29;;;;;;;16.58;4.18;;;;;;;;;;5146994;27;20043;-62
2022/01/18 10:16:55;;;;;;;23.92;4.45;;;;;;;;;;5146841;27;20524;-62
2022/01/18 10:19:31;;;;;;;25.58;5.15;;;;;;;;;;5147030;27;20047;-62
2022/01/18 10:22:11;;;;;;;15.88;4.32;;;;;;;;;;5144426;27;20050;-62
2022/01/18 10:24:38;;;;;;;22.05;5.45;;;;;;;;;;5147055;27;20050;-62
2022/01/18 10:27:04;;;;;;;14.43;4.57;;;;;;;;;;5136771;27;20051;-63
2022/01/18 10:29:41;;;;;;;15.25;4.43;;;;;;;;;;5139919;27;20051;-63
2022/01/18 10:32:12;;;;;;;17.00;3.78;;;;;;;;;;5141702;27;20044;-62
2022/01/18 10:37:20;;;;;;;16.98;4.57;;;;;;;;;;5145849;27;20043;-62
2022/01/18 10:39:50;;;;;;;20.92;5.20;;;;;;;;;;5146613;27;20120;-62
2022/01/18 10:42:23;;;;;;;18.17;5.05;;;;;;;;;;5145399;27;20042;-62
2022/01/18 10:45:05;;;;;;;20.92;4.60;;;;;;;;;;5145832;27;20099;-62
2022/01/18 10:47:32;;;;;;;12.85;3.90;;;;;;;;;;5144077;27;20461;-62
2022/01/18 10:50:06;;;;;;;16.23;4.30;;;;;;;;;;5146377;27;20077;-62
2022/01/18 10:52:32;;;;;;;12.75;4.28;;;;;;;;;;5146199;27;20106;-62
2022/01/18 10:54:59;;;;;;;10.25;3.78;;;;;;;;;;5146236;27;20629;-62
2022/01/18 10:57:25;;;;;;;10.35;3.70;;;;;;;;;;5146128;27;20035;-62
2022/01/18 11:00:11;;;;;;;21.30;4.50;;;;;;;;;;5146611;27;20051;-62
2022/01/18 11:02:40;;;;;;;15.30;4.03;;;;;;;;;;5146031;27;20046;-62
2022/01/18 11:05:13;;;;;;;15.85;3.63;;;;;;;;;;5145348;27;20494;-62
2022/01/18 11:07:40;;;;;;;17.60;5.65;;;;;;;;;;5146510;27;20050;-62
2022/01/18 11:10:08;;;;;;;18.40;4.80;;;;;;;;;;5144798;27;20043;-62
2022/01/18 11:12:34;;;;;;;;;;;;;;;;;;5146425;27;20035;-62
2022/01/18 11:15:05;;;;;;;17.20;4.10;;;;;;;;;;5139952;27;19919;-62
2022/01/18 11:17:39;;;;;;;16.25;4.97;;;;;;;;;;5127899;27;20050;-62
2022/01/18 11:20:06;;;;;;;18.13;3.92;;;;;;;;;;5125602;28;20102;-62
2022/01/18 11:22:33;;;;;;;19.42;4.43;;;;;;;;;;5143249;27;20042;-62
2022/01/18 11:24:59;;;;;;;15.38;3.42;;;;;;;;;;5139396;27;20068;-62
2022/01/18 11:27:28;;;;;;;20.77;4.05;;;;;;;;;;5127513;27;20098;-62
2022/01/18 11:29:54;;;;;;;13.90;3.53;;;;;;;;;;5142710;27;20450;-62
2022/01/18 11:32:24;;;;;;;15.30;4.55;;;;;;;;;;5144225;27;20043;-62
2022/01/18 11:35:02;;;;;;;19.15;4.10;;;;;;;;;;5145024;27;20112;-63
2022/01/18 11:37:33;;;;;;;17.67;3.65;;;;;;;;;;5145933;27;20049;-62
2022/01/18 11:40:01;;;;;;;14.25;3.42;;;;;;;;;;5145677;27;20430;-62
2022/01/18 11:42:49;;;;;;;20.13;3.72;;;;;;;;;;5144991;27;20047;-62
2022/01/18 11:45:24;;;;;;;14.50;3.55;;;;;;;;;;5145870;27;20043;-62
2022/01/18 11:48:00;;;;;;;12.70;3.03;;;;;;;;;;5145874;27;20510;-62
2022/01/18 11:50:30;;;;;;;7.63;2.70;;;;;;;;;;5144864;27;20362;-62
2022/01/18 11:53:22;;;;;;;9.95;2.67;;;;;;;;;;5145730;27;20064;-62
2022/01/18 11:55:48;;;;;;;15.88;3.45;;;;;;;;;;5145381;27;20051;-63
2022/01/18 11:58:14;;;;;;;10.45;2.90;;;;;;;;;;5144644;27;20047;-62
2022/01/18 12:00:50;;;;;;;11.40;3.65;;;;;;;;;;5144768;27;20072;-62
2022/01/18 12:03:18;;;;;;;11.75;3.20;;;;;;;;;;5144028;27;20104;-62
2022/01/18 12:05:44;;;;;;;11.98;3.53;;;;;;;;;;5142775;27;20546;-63
2022/01/18 12:08:10;;;;;;;11.63;3.25;;;;;;;;;;5145815;27;20047;-62
2022/01/18 12:10:42;;;;;;;14.20;3.95;;;;;;;;;;5145215;27;20046;-62
2022/01/18 12:13:11;;;;;;;17.80;3.40;;;;;;;;;;5145145;27;20107;-62
2022/01/18 12:15:38;;;;;;;20.27;3.55;;;;;;;;;;5145577;27;20050;-62
2022/01/18 12:18:14;;;;;;;15.40;3.95;;;;;;;;;;5145425;27;20051;-62
2022/01/18 12:20:43;;;;;;;15.65;4.32;;;;;;;;;;5143950;28;20627;-62
2022/01/18 12:23:14;;;;;;;12.50;4.50;;;;;;;;;;5144502;27;20117;-62
2022/01/18 12:25:56;;;;;;;10.65;3.45;;;;;;;;;;5145086;28;20064;-63
2022/01/18 12:34:28;;;;;;;10.82;4.07;;;;;;;;;;5145398;27;20057;-63
2022/01/18 12:37:07;;;;;;;20.63;4.10;;;;;;;;;;5144705;27;20054;-63
2022/01/18 12:45:03;;;;;;;14.35;4.78;;;;;;;;;;5147015;27;20047;-63
2022/01/18 12:47:30;;;;;;;17.30;4.38;;;;;;;;;;5148049;27;20055;-63
2022/01/18 12:49:56;;;;;;;16.40;5.60;;;;;;;;;;5149120;27;20043;-63
2022/01/18 12:52:23;;;;;;;12.70;4.90;;;;;;;;;;5142447;27;20529;-63
2022/01/18 12:54:49;;;;;;;16.20;4.57;;;;;;;;;;5142868;27;20065;-63
2022/01/18 12:57:16;;;;;;;26.15;5.25;;;;;;;;;;5138996;27;20043;-63
2022/01/18 13:00:16;;;;;;;10.80;5.65;;;;;;;;;;5147946;27;20071;-66
2022/01/18 13:02:46;;;;;;;13.65;4.95;;;;;;;;;;5068624;28;20094;-66
2022/01/18 13:05:13;;;;;;;14.90;4.88;;;;;;;;;;5067570;28;20128;-66
2022/01/18 13:07:51;;;;;;;14.82;4.60;;;;;;;;;;5084933;28;20086;-66
2022/01/18 13:10:18;;;;;;;20.83;5.15;;;;;;;;;;5084323;28;20044;-65
2022/01/18 13:12:45;;;;;;;19.98;6.15;;;;;;;;;;5083835;28;20120;-65
2022/01/18 13:15:21;;;;;;;15.80;5.57;;;;;;;;;;5084106;28;20598;-65
2022/01/18 13:23:40;;;;;;;13.00;3.78;;;;;;;;;;5067898;28;20087;-66
2022/01/18 13:26:06;;;;;;;24.08;5.57;;;;;;;;;;5082902;28;20082;-66
2022/01/18 13:28:37;;;;;;;17.00;5.55;;;;;;;;;;5079525;28;20068;-66
2022/01/18 13:31:15;;;;;;;13.27;4.93;;;;;;;;;;5084236;28;20049;-66
2022/01/18 13:33:58;;;;;;;19.05;6.20;;;;;;;;;;5084467;28;20048;-66
2022/01/18 13:36:24;;;;;;;19.85;5.68;;;;;;;;;;5084275;28;20087;-66
2022/01/18 13:38:51;;;;;;;17.58;6.35;;;;;;;;;;5116472;28;20079;-66
2022/01/18 13:41:17;;;;;;;17.48;6.70;;;;;;;;;;5129047;27;20043;-66
2022/01/18 13:43:44;;;;;;;23.90;6.63;;;;;;;;;;5148840;27;20054;-66
2022/01/18 13:46:10;;;;;;;14.98;5.22;;;;;;;;;;5138539;27;20047;-66
2022/01/18 13:48:37;;;;;;;16.48;6.00;;;;;;;;;;5140365;27;20092;-66
2022/01/18 13:51:14;;;;;;;18.87;6.70;;;;;;;;;;5145893;27;20125;-65
2022/01/18 13:53:41;;;;;;;20.92;6.60;;;;;;;;;;5163962;27;20297;-66
2022/01/18 13:56:12;;;;;;;31.80;6.88;;;;;;;;;;5162950;27;20054;-65
2022/01/18 13:58:39;;;;;;;15.80;5.35;;;;;;;;;;5141579;27;20039;-66
2022/01/18 14:01:08;;;;;;;20.35;6.20;;;;;;;;;;5146644;27;20159;-66
2022/01/18 14:03:37;;;;;;;22.63;6.80;;;;;;;;;;5147970;27;20510;-66
2022/01/18 14:06:03;;;;;;;22.27;6.88;;;;;;;;;;5147263;27;20039;-66
2022/01/18 14:08:40;;;;;;;18.17;7.10;;;;;;;;;;5148146;27;20062;-66
2022/01/18 14:11:08;;;;;;;20.60;7.32;;;;;;;;;;5162860;27;20046;-66
2022/01/18 14:13:37;;;;;;;12.35;6.13;;;;;;;;;;5148934;27;20095;-66
2022/01/18 14:16:19;;;;;;;18.08;6.50;;;;;;;;;;5147125;27;20050;-65
2022/01/18 14:18:52;;;;;;;15.00;6.13;;;;;;;;;;5146832;27;20059;-65
2022/01/18 14:21:28;;;;;;;19.40;6.10;;;;;;;;;;5148445;27;20061;-65
2022/01/18 14:24:07;;;;;;;19.00;7.18;;;;;;;;;;5160277;27;20509;-65
2022/01/18 14:26:35;;;;;;;24.27;7.85;;;;;;;;;;5139152;27;20070;-66
2022/01/18 14:29:03;;;;;;;22.40;7.43;;;;;;;;;;5142481;27;20077;-66
2022/01/18 14:31:29;;;;;;;18.08;6.82;;;;;;;;;;5142064;27;20034;-66
2022/01/18 14:33:55;;;;;;;19.30;6.43;;;;;;;;;;5152237;27;20067;-67
2022/01/18 14:36:21;;;;;;;26.10;6.65;;;;;;;;;;5144573;27;20035;-66
2022/01/18 14:38:48;;;;;;;23.45;6.75;;;;;;;;;;5146112;27;20444;-66
2022/01/18 14:41:18;;;;;;;15.48;6.05;;;;;;;;;;5146044;27;20039;-66
2022/01/18 14:43:44;;;;;;;20.10;5.95;;;;;;;;;;5134932;27;20078;-66
2022/01/18 14:46:47;;;;;;;14.85;5.93;;;;;;;;;;5133961;27;20582;-66
2022/01/18 14:49:11;;;;;;;19.73;5.28;;;;;;;;;;5144810;27;20055;-68
2022/01/18 14:51:37;;;;;;;28.20;6.68;;;;;;;;;;5143666;27;20047;-66
2022/01/18 14:54:06;;;;;;;19.92;7.47;;;;;;;;;;5146776;27;20164;-65
2022/01/18 14:56:33;;;;;;;23.17;6.68;;;;;;;;;;5146110;27;20035;-66
2022/01/18 14:58:59;;;;;;;20.88;6.65;;;;;;;;;;5146792;27;20047;-66
2022/01/18 15:01:26;;;;;;;18.73;6.22;;;;;;;;;;5139582;27;20409;-66
2022/01/18 15:03:53;;;;;;;27.67;8.18;;;;;;;;;;5146815;27;20046;-66
2022/01/18 15:06:19;;;;;;;27.60;8.20;;;;;;;;;;5141412;27;20386;-66
2022/01/18 15:08:45;;;;;;;27.60;6.35;;;;;;;;;;5146660;27;20111;-66
2022/01/18 15:11:11;;;;;;;19.90;7.38;;;;;;;;;;5145217;27;20106;-66
2022/01/18 15:13:37;;;;;;;21.30;6.90;;;;;;;;;;5145905;27;20095;-66
2022/01/18 15:16:03;;;;;;;24.90;6.72;;;;;;;;;;5146256;27;20087;-66
2022/01/18 15:18:29;;;;;;;21.63;7.45;;;;;;;;;;5145405;27;20039;-66
2022/01/18 15:20:55;;;;;;;22.42;7.00;;;;;;;;;;5143579;27;20045;-66
2022/01/18 15:23:21;;;;;;;26.90;8.27;;;;;;;;;;5139355;27;20065;-66
2022/01/18 15:25:47;;;;;;;20.77;8.63;;;;;;;;;;5144900;27;20092;-66
2022/01/18 15:28:14;;;;;;;23.38;7.93;;;;;;;;;;5145209;27;20050;-66
2022/01/18 15:30:40;;;;;;;21.92;7.40;;;;;;;;;;5145164;27;20095;-66
2022/01/18 15:33:09;;;;;;;22.67;8.63;;;;;;;;;;5144893;27;20065;-66
2022/01/18 15:35:35;;;;;;;23.80;8.82;;;;;;;;;;5136866;27;20054;-67
2022/01/18 15:38:01;;;;;;;17.85;8.05;;;;;;;;;;5138518;27;20035;-66
2022/01/18 15:40:27;;;;;;;25.48;9.93;;;;;;;;;;5140161;27;20039;-66
2022/01/18 15:42:53;;;;;;;25.40;9.57;;;;;;;;;;5140147;27;20078;-66
2022/01/18 15:45:20;;;;;;;34.38;10.75;;;;;;;;;;5141931;27;20051;-66
2022/01/18 15:47:46;;;;;;;24.38;10.35;;;;;;;;;;5143333;27;20110;-66
2022/01/18 15:50:12;;;;;;;30.48;11.60;;;;;;;;;;5145487;27;20047;-66
2022/01/18 15:52:38;;;;;;;32.83;12.77;;;;;;;;;;5149388;27;20038;-67
2022/01/18 15:55:05;;;;;;;30.85;10.48;;;;;;;;;;5139928;27;20047;-66
2022/01/18 15:57:31;;;;;;;30.95;12.02;;;;;;;;;;5144155;27;20031;-66
2022/01/18 15:59:57;;;;;;;29.10;13.43;;;;;;;;;;5144406;27;20141;-66
2022/01/18 16:02:24;;;;;;;35.15;14.00;;;;;;;;;;5142978;27;20125;-66
2022/01/18 16:04:50;;;;;;;35.83;14.57;;;;;;;;;;5141270;27;20130;-66
2022/01/18 16:07:16;;;;;;;43.97;15.07;;;;;;;;;;5140878;27;20043;-66
2022/01/18 16:09:42;;;;;;;46.88;15.07;;;;;;;;;;5145277;27;20039;-66